Time;durP1;ratioP1;P1;durP2;ratioP2;P2;SDS_P1;SDS_P2;PMS_P1;PMS_P2;Temp;Humidity;BMP_temperature;BMP_pressure;BME280_temperature;BME280_humidity;BME280_pressure;Samples;Min_cycle;Max_cycle;Signal;HPM_P1;HPM_P2
2023/04/23 00:00:36;;;;;;;12.15;8.32;;;;;;;;;;5048882;28;20021;-73
2023/04/23 00:03:09;;;;;;;13.30;8.05;;;;;;;;;;5045528;28;20065;-72
2023/04/23 00:05:38;;;;;;;12.27;8.30;;;;;;;;;;5047526;28;20021;-71
2023/04/23 00:08:05;;;;;;;12.80;8.48;;;;;;;;;;5045659;28;20029;-71
2023/04/23 00:10:32;;;;;;;11.55;8.10;;;;;;;;;;5047480;28;20025;-72
2023/04/23 00:12:58;;;;;;;12.73;8.70;;;;;;;;;;5046731;28;20036;-73
2023/04/23 00:15:24;;;;;;;13.20;8.38;;;;;;;;;;5046128;28;20036;-73
2023/04/23 00:17:50;;;;;;;11.55;8.20;;;;;;;;;;5044574;28;20384;-73
2023/04/23 00:20:17;;;;;;;11.07;7.85;;;;;;;;;;5048681;28;20309;-74
2023/04/23 00:22:43;;;;;;;11.20;8.18;;;;;;;;;;5045760;28;20656;-73
2023/04/23 00:25:10;;;;;;;12.43;8.40;;;;;;;;;;5058161;28;20049;-74
2023/04/23 00:27:36;;;;;;;13.20;8.32;;;;;;;;;;5048141;28;20032;-72
2023/04/23 00:30:03;;;;;;;12.13;7.50;;;;;;;;;;5049185;28;20536;-72
2023/04/23 00:32:29;;;;;;;10.85;7.57;;;;;;;;;;5045459;28;20029;-74
2023/04/23 00:34:55;;;;;;;13.02;8.38;;;;;;;;;;5044747;28;20037;-74
2023/04/23 00:37:22;;;;;;;10.13;8.07;;;;;;;;;;5045474;28;20538;-72
2023/04/23 00:39:48;;;;;;;12.07;7.60;;;;;;;;;;5077836;28;20055;-73
2023/04/23 00:42:16;;;;;;;11.93;7.88;;;;;;;;;;5045938;28;20025;-75
2023/04/23 00:44:42;;;;;;;13.73;7.97;;;;;;;;;;5050572;28;20013;-74
2023/04/23 00:47:09;;;;;;;13.20;8.82;;;;;;;;;;5047853;28;20024;-74
2023/04/23 00:49:35;;;;;;;12.57;8.07;;;;;;;;;;5035946;28;20053;-73
2023/04/23 00:52:02;;;;;;;11.48;7.75;;;;;;;;;;5049139;28;20024;-73
2023/04/23 00:54:29;;;;;;;12.75;7.85;;;;;;;;;;5044470;28;20029;-73
2023/04/23 00:56:58;;;;;;;11.77;7.88;;;;;;;;;;5045619;28;20052;-72
2023/04/23 00:59:28;;;;;;;10.73;7.07;;;;;;;;;;5042561;28;20032;-73
2023/04/23 01:01:55;;;;;;;12.18;8.25;;;;;;;;;;5048884;28;20028;-73
2023/04/23 01:04:22;;;;;;;12.18;9.05;;;;;;;;;;5047205;28;20406;-73
2023/04/23 01:06:48;;;;;;;15.38;9.63;;;;;;;;;;5049029;28;20032;-72
2023/04/23 01:09:16;;;;;;;16.90;10.40;;;;;;;;;;5048860;28;20025;-72
2023/04/23 01:11:43;;;;;;;13.73;8.93;;;;;;;;;;5042364;28;20021;-73
2023/04/23 01:14:10;;;;;;;13.50;9.13;;;;;;;;;;5046126;28;20112;-72
2023/04/23 01:16:37;;;;;;;11.98;9.57;;;;;;;;;;5042442;28;20033;-72
2023/04/23 01:19:05;;;;;;;14.07;8.77;;;;;;;;;;5042631;28;20029;-74
2023/04/23 01:21:32;;;;;;;13.48;9.18;;;;;;;;;;5044133;28;20025;-74
2023/04/23 01:23:59;;;;;;;14.23;9.40;;;;;;;;;;5047495;28;20475;-73
2023/04/23 01:26:25;;;;;;;14.27;9.20;;;;;;;;;;5043152;28;20025;-73
2023/04/23 01:28:52;;;;;;;13.38;8.23;;;;;;;;;;5046776;28;20506;-73
2023/04/23 01:31:18;;;;;;;11.90;8.55;;;;;;;;;;5048749;28;20163;-72
2023/04/23 01:33:45;;;;;;;13.05;7.78;;;;;;;;;;5048945;28;20031;-75
2023/04/23 01:36:12;;;;;;;13.00;9.38;;;;;;;;;;5048524;28;20027;-74
2023/04/23 01:38:38;;;;;;;12.25;9.45;;;;;;;;;;5045709;28;20029;-73
2023/04/23 01:41:04;;;;;;;13.75;9.60;;;;;;;;;;5046618;28;20545;-74
2023/04/23 01:43:30;;;;;;;14.45;9.32;;;;;;;;;;5041268;28;20016;-74
2023/04/23 01:45:58;;;;;;;11.55;7.93;;;;;;;;;;5041281;28;20024;-75
2023/04/23 01:48:24;;;;;;;12.10;7.78;;;;;;;;;;5040631;28;20036;-73
2023/04/23 01:50:51;;;;;;;11.43;7.80;;;;;;;;;;5044395;28;20025;-75
2023/04/23 01:53:17;;;;;;;11.88;8.10;;;;;;;;;;5042818;28;20028;-74
2023/04/23 01:55:45;;;;;;;17.75;9.65;;;;;;;;;;5048391;28;20085;-74
2023/04/23 01:58:12;;;;;;;11.88;7.78;;;;;;;;;;5044022;28;20517;-75
2023/04/23 02:00:38;;;;;;;11.75;8.07;;;;;;;;;;5051331;28;20021;-72
2023/04/23 02:03:04;;;;;;;10.48;7.13;;;;;;;;;;5044751;28;20047;-72
2023/04/23 02:05:32;;;;;;;9.45;6.95;;;;;;;;;;5048642;28;20072;-73
2023/04/23 02:07:58;;;;;;;9.77;7.05;;;;;;;;;;5046396;28;20092;-73
2023/04/23 02:10:24;;;;;;;10.90;6.57;;;;;;;;;;5039969;28;20079;-73
2023/04/23 02:12:50;;;;;;;10.85;6.60;;;;;;;;;;5045465;28;20548;-74
2023/04/23 02:15:18;;;;;;;9.60;6.63;;;;;;;;;;5046709;28;20394;-73
2023/04/23 02:17:44;;;;;;;10.52;7.07;;;;;;;;;;5046374;28;20572;-72
2023/04/23 02:20:11;;;;;;;9.23;6.45;;;;;;;;;;5037814;28;20560;-73
2023/04/23 02:22:38;;;;;;;11.30;7.10;;;;;;;;;;5037196;28;20525;-72
2023/04/23 02:25:05;;;;;;;7.95;5.95;;;;;;;;;;5038618;28;20540;-74
2023/04/23 02:27:32;;;;;;;8.38;6.53;;;;;;;;;;5041603;28;20033;-74
2023/04/23 02:29:58;;;;;;;8.27;6.78;;;;;;;;;;5044515;28;20035;-74
2023/04/23 02:32:25;;;;;;;8.77;6.20;;;;;;;;;;5048538;28;20029;-74
2023/04/23 02:34:52;;;;;;;9.95;6.75;;;;;;;;;;5035567;28;20498;-74
2023/04/23 02:37:18;;;;;;;9.52;6.38;;;;;;;;;;5036823;28;20394;-73
2023/04/23 02:39:44;;;;;;;10.48;6.97;;;;;;;;;;5042066;28;20025;-74
2023/04/23 02:42:11;;;;;;;10.13;7.50;;;;;;;;;;5046160;28;20021;-74
2023/04/23 02:44:37;;;;;;;10.43;6.93;;;;;;;;;;5045879;28;20040;-73
2023/04/23 02:47:03;;;;;;;11.15;6.72;;;;;;;;;;5040412;28;20040;-73
2023/04/23 02:49:29;;;;;;;10.18;7.10;;;;;;;;;;5035512;28;20108;-74
2023/04/23 02:51:55;;;;;;;10.60;6.57;;;;;;;;;;5050067;28;20028;-73
2023/04/23 02:54:22;;;;;;;8.80;6.35;;;;;;;;;;5045005;28;20536;-74
2023/04/23 02:56:48;;;;;;;7.30;5.38;;;;;;;;;;5045469;28;20499;-73
2023/04/23 02:59:14;;;;;;;7.57;5.20;;;;;;;;;;5037246;28;20162;-73
2023/04/23 03:01:40;;;;;;;6.03;4.85;;;;;;;;;;5046734;28;20021;-72
2023/04/23 03:04:07;;;;;;;5.47;4.28;;;;;;;;;;5045755;28;20078;-75
2023/04/23 03:06:34;;;;;;;6.15;4.75;;;;;;;;;;5041024;28;20025;-72
2023/04/23 03:09:00;;;;;;;5.05;4.03;;;;;;;;;;5038695;28;20597;-72
2023/04/23 03:11:26;;;;;;;5.82;4.18;;;;;;;;;;5042754;28;20021;-73
2023/04/23 03:13:52;;;;;;;7.63;4.47;;;;;;;;;;5048308;28;20035;-73
2023/04/23 03:16:18;;;;;;;5.38;3.90;;;;;;;;;;5043728;28;20044;-73
2023/04/23 03:18:45;;;;;;;6.00;4.38;;;;;;;;;;5038897;28;20566;-73
2023/04/23 03:21:11;;;;;;;5.20;4.05;;;;;;;;;;5037721;28;20032;-73
2023/04/23 03:23:37;;;;;;;5.45;3.95;;;;;;;;;;5040557;28;20471;-72
2023/04/23 03:26:04;;;;;;;5.70;4.22;;;;;;;;;;5044374;28;20690;-73
2023/04/23 03:28:30;;;;;;;5.40;4.28;;;;;;;;;;5041520;28;20032;-74
2023/04/23 03:30:56;;;;;;;5.20;4.15;;;;;;;;;;5046403;28;20465;-72
2023/04/23 03:33:23;;;;;;;6.15;4.20;;;;;;;;;;5046391;28;20025;-72
2023/04/23 03:35:49;;;;;;;7.30;4.25;;;;;;;;;;5042795;28;20036;-72
2023/04/23 03:38:15;;;;;;;5.35;4.18;;;;;;;;;;5038903;28;20394;-72
2023/04/23 03:40:41;;;;;;;6.07;4.32;;;;;;;;;;5045300;28;20032;-73
2023/04/23 03:43:07;;;;;;;5.32;4.18;;;;;;;;;;5048700;28;20226;-74
2023/04/23 03:45:33;;;;;;;5.07;4.35;;;;;;;;;;5042637;28;20017;-73
2023/04/23 03:47:59;;;;;;;4.97;3.42;;;;;;;;;;5050363;28;20036;-73
2023/04/23 03:50:25;;;;;;;5.55;4.00;;;;;;;;;;5054919;28;20017;-72
2023/04/23 03:52:51;;;;;;;5.68;4.20;;;;;;;;;;5048087;28;20029;-74
2023/04/23 03:55:19;;;;;;;5.95;4.75;;;;;;;;;;5037497;28;20045;-73
2023/04/23 03:57:45;;;;;;;5.90;4.25;;;;;;;;;;5040387;28;20052;-73
2023/04/23 04:00:12;;;;;;;5.20;4.25;;;;;;;;;;5038751;28;20036;-71
2023/04/23 04:02:38;;;;;;;6.13;4.80;;;;;;;;;;5046769;28;20075;-73
2023/04/23 04:05:05;;;;;;;6.85;4.57;;;;;;;;;;5040635;28;20429;-72
2023/04/23 04:07:32;;;;;;;6.00;4.32;;;;;;;;;;5044350;28;20051;-73
2023/04/23 04:09:58;;;;;;;7.60;4.85;;;;;;;;;;5050957;28;20060;-73
2023/04/23 04:12:24;;;;;;;7.28;5.05;;;;;;;;;;5048752;28;20108;-73
2023/04/23 04:14:50;;;;;;;6.28;4.72;;;;;;;;;;5048396;28;20505;-73
2023/04/23 04:17:17;;;;;;;6.43;4.82;;;;;;;;;;5046512;28;20033;-72
2023/04/23 04:19:43;;;;;;;6.40;4.60;;;;;;;;;;5042663;28;20059;-73
2023/04/23 04:22:09;;;;;;;7.93;5.22;;;;;;;;;;5041442;28;20067;-73
2023/04/23 04:24:36;;;;;;;5.97;4.30;;;;;;;;;;5041305;28;20028;-73
2023/04/23 04:27:03;;;;;;;6.03;4.45;;;;;;;;;;5051303;28;20255;-73
2023/04/23 04:29:30;;;;;;;6.50;4.95;;;;;;;;;;5042467;28;20526;-72
2023/04/23 04:31:56;;;;;;;6.63;4.25;;;;;;;;;;5044855;28;20040;-74
2023/04/23 04:34:22;;;;;;;6.38;4.60;;;;;;;;;;5044851;28;20194;-74
2023/04/23 04:36:52;;;;;;;5.90;4.93;;;;;;;;;;5049536;28;20021;-72
2023/04/23 04:39:18;;;;;;;5.45;4.43;;;;;;;;;;5043533;28;20056;-72
2023/04/23 04:41:45;;;;;;;6.93;4.80;;;;;;;;;;5046618;28;20259;-73
2023/04/23 04:44:13;;;;;;;9.25;5.72;;;;;;;;;;5051077;28;20020;-73
2023/04/23 04:46:41;;;;;;;6.43;5.07;;;;;;;;;;5042995;28;20084;-72
2023/04/23 04:49:08;;;;;;;7.82;5.35;;;;;;;;;;5044787;28;20544;-73
2023/04/23 04:51:34;;;;;;;7.03;5.15;;;;;;;;;;5045650;28;20036;-73
2023/04/23 04:54:00;;;;;;;7.00;5.60;;;;;;;;;;5045153;28;20048;-72
2023/04/23 04:56:26;;;;;;;8.40;5.55;;;;;;;;;;5044851;28;20081;-73
2023/04/23 04:58:53;;;;;;;8.93;6.32;;;;;;;;;;5050520;28;20093;-74
2023/04/23 05:01:19;;;;;;;8.00;5.45;;;;;;;;;;5046121;28;20032;-74
2023/04/23 05:03:46;;;;;;;10.60;6.22;;;;;;;;;;5047081;28;20028;-74
2023/04/23 05:06:12;;;;;;;9.35;6.20;;;;;;;;;;5048090;28;20089;-73
2023/04/23 05:08:38;;;;;;;10.43;6.78;;;;;;;;;;5049280;28;20439;-74
2023/04/23 05:11:05;;;;;;;9.85;6.93;;;;;;;;;;5058699;28;20176;-73
2023/04/23 05:13:31;;;;;;;10.23;7.00;;;;;;;;;;5038504;28;20029;-74
2023/04/23 05:15:58;;;;;;;9.85;6.80;;;;;;;;;;5056122;28;20078;-74
2023/04/23 05:18:25;;;;;;;11.88;7.40;;;;;;;;;;5049282;28;20037;-75
2023/04/23 05:20:51;;;;;;;11.57;7.50;;;;;;;;;;5050584;28;20096;-76
2023/04/23 05:23:17;;;;;;;19.30;8.07;;;;;;;;;;5049265;28;20025;-73
2023/04/23 05:25:43;;;;;;;10.20;7.70;;;;;;;;;;5048839;28;20021;-74
2023/04/23 05:28:10;;;;;;;11.07;8.13;;;;;;;;;;5041424;28;20033;-75
2023/04/23 05:30:37;;;;;;;14.32;9.02;;;;;;;;;;5048741;28;20029;-74
2023/04/23 05:33:03;;;;;;;11.35;7.55;;;;;;;;;;5046381;28;20037;-74
2023/04/23 05:35:30;;;;;;;14.15;8.23;;;;;;;;;;5050609;28;20048;-72
2023/04/23 05:37:56;;;;;;;12.93;9.00;;;;;;;;;;5047368;28;20051;-73
2023/04/23 05:40:23;;;;;;;14.32;8.75;;;;;;;;;;5046507;28;20098;-73
2023/04/23 05:42:49;;;;;;;14.15;8.90;;;;;;;;;;5041751;28;20498;-73
2023/04/23 05:45:15;;;;;;;16.10;9.85;;;;;;;;;;5041224;28;20120;-77
2023/04/23 05:47:41;;;;;;;15.85;9.63;;;;;;;;;;5045301;28;20033;-73
2023/04/23 05:50:07;;;;;;;15.05;9.98;;;;;;;;;;5045736;28;20483;-72
2023/04/23 05:52:36;;;;;;;15.57;9.23;;;;;;;;;;5051426;28;20425;-73
2023/04/23 05:55:02;;;;;;;16.67;9.88;;;;;;;;;;5048324;28;20471;-72
2023/04/23 05:57:28;;;;;;;15.23;8.95;;;;;;;;;;5039570;28;20063;-73
2023/04/23 05:59:54;;;;;;;16.80;10.68;;;;;;;;;;5046878;28;20085;-73
2023/04/23 06:02:20;;;;;;;15.13;10.20;;;;;;;;;;5043794;28;20024;-73
2023/04/23 06:04:46;;;;;;;16.77;10.55;;;;;;;;;;5042127;28;20054;-73
2023/04/23 06:07:14;;;;;;;15.40;10.05;;;;;;;;;;5044462;28;20048;-74
2023/04/23 06:09:40;;;;;;;14.07;9.38;;;;;;;;;;5047232;28;20021;-72
2023/04/23 06:12:07;;;;;;;13.57;9.02;;;;;;;;;;5047352;28;20511;-71
2023/04/23 06:14:33;;;;;;;14.68;9.45;;;;;;;;;;5045925;28;20080;-72
2023/04/23 06:16:59;;;;;;;16.05;9.23;;;;;;;;;;5044084;28;20033;-73
2023/04/23 06:19:26;;;;;;;12.60;9.07;;;;;;;;;;5055495;28;20036;-73
2023/04/23 06:21:53;;;;;;;14.98;10.23;;;;;;;;;;5041843;28;20032;-74
2023/04/23 06:24:19;;;;;;;14.40;10.07;;;;;;;;;;5036997;28;20033;-73
2023/04/23 06:26:45;;;;;;;12.13;9.02;;;;;;;;;;5045563;28;20103;-73
2023/04/23 06:29:11;;;;;;;15.73;10.20;;;;;;;;;;5037082;28;20045;-72
2023/04/23 06:31:38;;;;;;;12.90;8.70;;;;;;;;;;5046034;28;20032;-74
2023/04/23 06:34:04;;;;;;;12.93;8.73;;;;;;;;;;5045920;28;20033;-73
2023/04/23 06:36:31;;;;;;;13.55;9.98;;;;;;;;;;5045854;28;20036;-73
2023/04/23 06:38:57;;;;;;;15.45;9.68;;;;;;;;;;5043078;28;20489;-74
2023/04/23 06:41:23;;;;;;;13.60;9.05;;;;;;;;;;5044749;28;20427;-74
2023/04/23 06:43:49;;;;;;;14.38;9.45;;;;;;;;;;5040868;28;20049;-73
2023/04/23 06:46:15;;;;;;;13.00;9.38;;;;;;;;;;5037546;28;20511;-74
2023/04/23 06:48:41;;;;;;;15.02;9.85;;;;;;;;;;5035486;28;20105;-74
2023/04/23 06:51:07;;;;;;;13.65;9.32;;;;;;;;;;5049728;28;20036;-74
2023/04/23 06:53:33;;;;;;;12.45;9.68;;;;;;;;;;5039084;28;20430;-73
2023/04/23 06:55:59;;;;;;;12.40;8.57;;;;;;;;;;5036939;28;20056;-73
2023/04/23 06:58:30;;;;;;;11.73;7.97;;;;;;;;;;5047517;28;20079;-73
2023/04/23 07:00:58;;;;;;;14.60;9.15;;;;;;;;;;5047925;28;20033;-73
2023/04/23 07:03:25;;;;;;;12.60;8.18;;;;;;;;;;5047003;28;20024;-73
2023/04/23 07:05:51;;;;;;;15.57;9.38;;;;;;;;;;5047285;28;20017;-73
2023/04/23 07:08:18;;;;;;;13.82;9.25;;;;;;;;;;5050441;28;20033;-73
2023/04/23 07:10:44;;;;;;;14.50;9.15;;;;;;;;;;5048024;28;20029;-73
2023/04/23 07:13:10;;;;;;;14.75;8.85;;;;;;;;;;5050924;28;20064;-73
2023/04/23 07:15:36;;;;;;;11.13;8.50;;;;;;;;;;5050338;28;20108;-74
2023/04/23 07:18:03;;;;;;;19.83;9.10;;;;;;;;;;5048350;28;20038;-73
2023/04/23 07:20:29;;;;;;;13.25;8.38;;;;;;;;;;5048713;28;20108;-74
2023/04/23 07:22:55;;;;;;;11.18;8.07;;;;;;;;;;5052796;28;20090;-73
2023/04/23 07:25:23;;;;;;;12.88;8.60;;;;;;;;;;5051212;28;20028;-73
2023/04/23 07:27:49;;;;;;;10.30;7.78;;;;;;;;;;5048358;28;20247;-73
2023/04/23 07:30:16;;;;;;;11.45;7.88;;;;;;;;;;5041179;28;20033;-72
2023/04/23 07:32:42;;;;;;;11.88;8.25;;;;;;;;;;5049541;28;20104;-72
2023/04/23 07:35:10;;;;;;;11.55;8.40;;;;;;;;;;5053518;28;20049;-73
2023/04/23 07:37:36;;;;;;;10.57;8.10;;;;;;;;;;5044885;28;20026;-73
2023/04/23 07:40:04;;;;;;;12.88;8.63;;;;;;;;;;5050224;28;20514;-72
2023/04/23 07:42:30;;;;;;;12.05;8.13;;;;;;;;;;5047211;28;20356;-74
2023/04/23 07:44:56;;;;;;;12.68;8.52;;;;;;;;;;5043867;28;20510;-73
2023/04/23 07:47:22;;;;;;;12.18;8.02;;;;;;;;;;5049528;28;20021;-73
2023/04/23 07:49:49;;;;;;;9.20;6.97;;;;;;;;;;5051884;28;20029;-73
2023/04/23 07:52:16;;;;;;;14.20;7.57;;;;;;;;;;5043599;28;20025;-73
2023/04/23 07:54:42;;;;;;;10.65;7.60;;;;;;;;;;5051808;28;20120;-73
2023/04/23 07:57:10;;;;;;;12.60;8.65;;;;;;;;;;5049073;28;20323;-71
2023/04/23 07:59:38;;;;;;;11.27;8.32;;;;;;;;;;5048435;28;20033;-73
2023/04/23 08:02:04;;;;;;;10.30;7.32;;;;;;;;;;5052779;28;20028;-72
2023/04/23 08:04:30;;;;;;;10.02;7.07;;;;;;;;;;5048071;28;20472;-72
2023/04/23 08:06:57;;;;;;;10.63;7.50;;;;;;;;;;5051027;28;20021;-73
2023/04/23 08:09:23;;;;;;;9.27;6.95;;;;;;;;;;5050825;28;20057;-74
2023/04/23 08:11:49;;;;;;;11.38;8.05;;;;;;;;;;5057985;28;20490;-74
2023/04/23 08:14:15;;;;;;;11.52;7.38;;;;;;;;;;5042429;28;20105;-74
2023/04/23 08:16:41;;;;;;;11.93;7.65;;;;;;;;;;5050305;28;20037;-73
2023/04/23 08:19:08;;;;;;;11.05;7.78;;;;;;;;;;5046653;28;20032;-73
2023/04/23 08:21:34;;;;;;;11.68;8.63;;;;;;;;;;5048618;28;21721;-73
2023/04/23 08:24:01;;;;;;;10.60;8.15;;;;;;;;;;5047418;28;20025;-74
2023/04/23 08:26:27;;;;;;;9.68;8.13;;;;;;;;;;5047878;28;20021;-73
2023/04/23 08:28:54;;;;;;;11.10;8.48;;;;;;;;;;5048051;28;20061;-73
2023/04/23 08:31:20;;;;;;;10.02;7.68;;;;;;;;;;5050501;28;20052;-74
2023/04/23 08:33:46;;;;;;;9.68;7.10;;;;;;;;;;5046235;28;20038;-72
2023/04/23 08:36:14;;;;;;;11.13;7.55;;;;;;;;;;5050836;28;20050;-75
2023/04/23 08:38:40;;;;;;;16.25;8.43;;;;;;;;;;5053796;28;20098;-75
2023/04/23 08:41:09;;;;;;;10.18;7.57;;;;;;;;;;5053239;28;20021;-74
2023/04/23 08:43:43;;;;;;;13.63;8.38;;;;;;;;;;5046916;28;20025;-74
2023/04/23 08:46:11;;;;;;;9.40;7.40;;;;;;;;;;5047443;28;20028;-75
2023/04/23 08:48:40;;;;;;;8.98;6.75;;;;;;;;;;5051778;28;20451;-74
2023/04/23 08:51:08;;;;;;;9.57;7.63;;;;;;;;;;5042733;28;20033;-74
2023/04/23 08:53:34;;;;;;;10.63;7.93;;;;;;;;;;5049774;28;20029;-74
2023/04/23 08:56:00;;;;;;;12.85;8.35;;;;;;;;;;5042431;28;20451;-75
2023/04/23 08:58:27;;;;;;;8.70;7.20;;;;;;;;;;5047828;28;20104;-72
2023/04/23 09:00:53;;;;;;;11.20;8.65;;;;;;;;;;5042238;28;20379;-73
2023/04/23 09:03:20;;;;;;;12.13;8.38;;;;;;;;;;5038811;28;20029;-73
2023/04/23 09:05:46;;;;;;;11.88;8.07;;;;;;;;;;5046414;28;20036;-73
2023/04/23 09:08:12;;;;;;;11.40;7.72;;;;;;;;;;5042435;28;20030;-74
2023/04/23 09:10:40;;;;;;;10.45;7.53;;;;;;;;;;5047525;28;20479;-73
2023/04/23 09:13:07;;;;;;;9.20;7.18;;;;;;;;;;5047632;28;20049;-72
2023/04/23 09:15:37;;;;;;;10.23;7.53;;;;;;;;;;5047594;28;20029;-72
2023/04/23 09:18:03;;;;;;;13.05;8.50;;;;;;;;;;5048242;28;20079;-73
2023/04/23 09:20:29;;;;;;;9.50;7.28;;;;;;;;;;5050506;28;20082;-73
2023/04/23 09:22:55;;;;;;;9.13;7.43;;;;;;;;;;5045307;28;20546;-74
2023/04/23 09:25:23;;;;;;;8.30;6.90;;;;;;;;;;5047239;28;20021;-73
2023/04/23 09:27:50;;;;;;;10.13;7.68;;;;;;;;;;5049749;28;20441;-73
2023/04/23 09:30:17;;;;;;;11.23;7.20;;;;;;;;;;5047379;28;20052;-75
2023/04/23 09:32:44;;;;;;;10.20;7.95;;;;;;;;;;5048835;28;20029;-74
2023/04/23 09:35:14;;;;;;;8.07;7.00;;;;;;;;;;5049389;28;20059;-73
2023/04/23 09:37:47;;;;;;;10.60;7.63;;;;;;;;;;5050938;28;20021;-73
2023/04/23 09:40:15;;;;;;;9.90;7.82;;;;;;;;;;5036884;28;20029;-76
2023/04/23 09:42:41;;;;;;;10.48;7.63;;;;;;;;;;5038336;28;20070;-75
2023/04/23 09:45:08;;;;;;;10.77;8.48;;;;;;;;;;5041063;28;20363;-73
2023/04/23 09:47:34;;;;;;;9.63;7.15;;;;;;;;;;5049988;28;20036;-74
2023/04/23 09:50:01;;;;;;;10.93;7.90;;;;;;;;;;5047154;28;20055;-74
2023/04/23 09:52:30;;;;;;;9.95;7.45;;;;;;;;;;5048663;28;20036;-75
2023/04/23 09:54:58;;;;;;;8.95;7.22;;;;;;;;;;5044654;28;20034;-73
2023/04/23 09:57:25;;;;;;;11.43;7.85;;;;;;;;;;5044674;28;20474;-75
2023/04/23 09:59:51;;;;;;;8.85;6.78;;;;;;;;;;5049474;28;20021;-73
2023/04/23 10:02:19;;;;;;;9.27;6.95;;;;;;;;;;5047868;28;20083;-73
2023/04/23 10:04:50;;;;;;;7.85;6.68;;;;;;;;;;5044485;28;20084;-74
2023/04/23 10:07:17;;;;;;;9.73;7.03;;;;;;;;;;5042526;28;20028;-74
2023/04/23 10:09:43;;;;;;;10.63;6.93;;;;;;;;;;5046090;28;20032;-75
2023/04/23 10:12:10;;;;;;;8.32;6.50;;;;;;;;;;5045550;28;20029;-74
2023/04/23 10:14:39;;;;;;;9.40;7.15;;;;;;;;;;5040207;28;20101;-74
2023/04/23 10:17:05;;;;;;;9.98;7.50;;;;;;;;;;5043564;28;20407;-74
2023/04/23 10:19:32;;;;;;;9.45;7.15;;;;;;;;;;5041349;28;20024;-75
2023/04/23 10:22:03;;;;;;;9.43;6.78;;;;;;;;;;5045298;28;20406;-73
2023/04/23 10:24:31;;;;;;;8.02;6.70;;;;;;;;;;5043789;28;20036;-74
2023/04/23 10:26:59;;;;;;;10.73;6.97;;;;;;;;;;5047387;28;20449;-75
2023/04/23 10:29:30;;;;;;;8.82;6.70;;;;;;;;;;5048218;28;20024;-74
2023/04/23 10:31:57;;;;;;;8.50;6.05;;;;;;;;;;5049139;28;20029;-72
2023/04/23 10:34:27;;;;;;;7.30;6.60;;;;;;;;;;5040422;28;20580;-73
2023/04/23 10:36:55;;;;;;;9.63;6.32;;;;;;;;;;5036695;28;20033;-75
2023/04/23 10:39:22;;;;;;;6.85;5.80;;;;;;;;;;5048126;28;20029;-74
2023/04/23 10:41:48;;;;;;;7.63;5.70;;;;;;;;;;5045905;28;20042;-73
2023/04/23 10:44:17;;;;;;;8.52;5.75;;;;;;;;;;5050749;28;20029;-73
2023/04/23 10:46:55;;;;;;;9.05;6.15;;;;;;;;;;5049782;28;20084;-75
2023/04/23 10:49:22;;;;;;;6.30;5.45;;;;;;;;;;5052622;28;20095;-73
2023/04/23 10:51:48;;;;;;;7.13;5.00;;;;;;;;;;5039229;28;20033;-74
2023/04/23 10:54:15;;;;;;;6.55;5.03;;;;;;;;;;5048615;28;20395;-74
2023/04/23 10:56:41;;;;;;;5.30;4.20;;;;;;;;;;5035845;28;20080;-74
2023/04/23 10:59:28;;;;;;;5.70;4.30;;;;;;;;;;5042497;28;20478;-73
2023/04/23 11:01:57;;;;;;;6.70;4.65;;;;;;;;;;5050216;28;20040;-74
2023/04/23 11:04:24;;;;;;;5.60;4.57;;;;;;;;;;5048977;28;20484;-74
2023/04/23 11:06:52;;;;;;;8.05;5.22;;;;;;;;;;5047434;28;20033;-72
2023/04/23 11:09:37;;;;;;;5.68;5.05;;;;;;;;;;5049230;28;20021;-73
2023/04/23 11:12:08;;;;;;;6.65;5.00;;;;;;;;;;5052235;28;20041;-73
2023/04/23 11:14:41;;;;;;;6.10;5.35;;;;;;;;;;5044938;28;20454;-74
2023/04/23 11:17:10;;;;;;;5.53;4.90;;;;;;;;;;5043879;28;20025;-74
2023/04/23 11:19:37;;;;;;;6.95;4.88;;;;;;;;;;5044919;28;20109;-73
2023/04/23 11:22:05;;;;;;;5.90;4.68;;;;;;;;;;5051208;28;20020;-73
2023/04/23 11:24:41;;;;;;;5.72;5.10;;;;;;;;;;5049978;28;20336;-73
2023/04/23 11:27:08;;;;;;;5.00;4.50;;;;;;;;;;5043132;28;20025;-73
2023/04/23 11:29:34;;;;;;;6.75;4.55;;;;;;;;;;5059680;28;20039;-74
2023/04/23 11:32:00;;;;;;;5.18;4.60;;;;;;;;;;5056328;28;20501;-74
2023/04/23 11:34:27;;;;;;;5.93;4.78;;;;;;;;;;5056108;28;20028;-72
2023/04/23 11:36:55;;;;;;;6.78;4.60;;;;;;;;;;5041100;28;20135;-73
2023/04/23 11:39:25;;;;;;;5.97;4.28;;;;;;;;;;5040680;28;20398;-73
2023/04/23 11:41:52;;;;;;;6.07;4.72;;;;;;;;;;5048708;28;20428;-74
2023/04/23 11:44:19;;;;;;;5.45;4.85;;;;;;;;;;5040979;28;20021;-73
2023/04/23 11:46:49;;;;;;;5.72;4.95;;;;;;;;;;5043635;28;20098;-73
2023/04/23 11:49:16;;;;;;;5.00;4.50;;;;;;;;;;5049060;28;20052;-74
2023/04/23 11:51:43;;;;;;;4.85;4.25;;;;;;;;;;5048051;28;20021;-75
2023/04/23 11:54:09;;;;;;;5.82;5.05;;;;;;;;;;5049459;28;20029;-74
2023/04/23 11:56:36;;;;;;;5.47;4.93;;;;;;;;;;5045659;28;20048;-75
2023/04/23 11:59:03;;;;;;;5.60;4.90;;;;;;;;;;5037570;28;20111;-76
2023/04/23 12:01:43;;;;;;;6.07;5.00;;;;;;;;;;5046954;28;20028;-74
2023/04/23 12:04:13;;;;;;;6.25;5.05;;;;;;;;;;5029726;28;20388;-75
2023/04/23 12:06:41;;;;;;;7.30;4.95;;;;;;;;;;5050638;28;20100;-74
2023/04/23 12:09:09;;;;;;;7.40;5.43;;;;;;;;;;5041503;28;20060;-74
2023/04/23 12:11:35;;;;;;;6.70;4.85;;;;;;;;;;5044878;28;20078;-74
2023/04/23 12:14:02;;;;;;;5.80;5.13;;;;;;;;;;5050142;28;20211;-74
2023/04/23 12:16:51;;;;;;;5.80;4.95;;;;;;;;;;5046550;28;20537;-73
2023/04/23 12:19:18;;;;;;;7.05;5.30;;;;;;;;;;5048856;28;20021;-74
2023/04/23 12:21:48;;;;;;;5.57;4.28;;;;;;;;;;5043721;28;20034;-73
2023/04/23 12:24:14;;;;;;;5.38;4.35;;;;;;;;;;5042845;28;20564;-74
2023/04/23 12:26:42;;;;;;;5.68;4.55;;;;;;;;;;5050490;28;20447;-74
2023/04/23 12:29:08;;;;;;;5.80;5.15;;;;;;;;;;5039324;28;20041;-74
2023/04/23 12:31:37;;;;;;;4.88;4.38;;;;;;;;;;5054180;28;20032;-73
2023/04/23 12:34:05;;;;;;;6.63;4.75;;;;;;;;;;5043532;28;20053;-74
2023/04/23 12:36:31;;;;;;;4.53;4.10;;;;;;;;;;5049458;28;20554;-74
2023/04/23 12:39:21;;;;;;;4.57;4.18;;;;;;;;;;5050421;28;20033;-74
2023/04/23 12:41:47;;;;;;;5.88;4.07;;;;;;;;;;5040251;28;20086;-73
2023/04/23 12:44:14;;;;;;;6.63;4.05;;;;;;;;;;5045288;28;20504;-74
2023/04/23 12:46:40;;;;;;;4.25;3.78;;;;;;;;;;5044833;28;20030;-74
2023/04/23 12:49:06;;;;;;;5.25;4.43;;;;;;;;;;5042592;28;20029;-75
2023/04/23 12:51:32;;;;;;;7.43;4.53;;;;;;;;;;5043099;28;20483;-75
2023/04/23 12:53:58;;;;;;;5.55;4.60;;;;;;;;;;5047676;28;20386;-73
2023/04/23 12:56:25;;;;;;;5.70;5.10;;;;;;;;;;5048591;28;20045;-73
2023/04/23 12:58:52;;;;;;;6.50;5.28;;;;;;;;;;5045289;28;20033;-74
2023/04/23 13:01:18;;;;;;;7.32;5.68;;;;;;;;;;5050100;28;20039;-74
2023/04/23 13:03:44;;;;;;;6.93;6.13;;;;;;;;;;5048967;28;20095;-72
2023/04/23 13:06:10;;;;;;;7.18;5.85;;;;;;;;;;5047838;28;20056;-73
2023/04/23 13:08:36;;;;;;;6.85;5.53;;;;;;;;;;5041454;28;20057;-75
2023/04/23 13:11:02;;;;;;;6.47;4.75;;;;;;;;;;5049254;28;20032;-73
2023/04/23 13:13:28;;;;;;;9.00;5.25;;;;;;;;;;5047859;28;20063;-74
2023/04/23 13:15:54;;;;;;;7.03;4.88;;;;;;;;;;5048397;28;20475;-75
2023/04/23 13:18:21;;;;;;;5.90;4.50;;;;;;;;;;5043488;28;20475;-75
2023/04/23 13:20:47;;;;;;;5.70;4.20;;;;;;;;;;5035865;28;20018;-73
2023/04/23 13:23:14;;;;;;;6.45;4.50;;;;;;;;;;5032129;28;20626;-74
2023/04/23 13:25:40;;;;;;;5.47;4.05;;;;;;;;;;5046017;28;20457;-74
2023/04/23 13:28:06;;;;;;;4.40;3.45;;;;;;;;;;5051011;28;20412;-75
2023/04/23 13:30:32;;;;;;;5.43;3.50;;;;;;;;;;5057000;28;20029;-74
2023/04/23 13:32:58;;;;;;;4.45;3.55;;;;;;;;;;5040716;28;20025;-73
2023/04/23 13:35:25;;;;;;;3.67;3.28;;;;;;;;;;5050967;28;20368;-73
2023/04/23 13:37:51;;;;;;;4.13;3.40;;;;;;;;;;5048204;28;20024;-73
2023/04/23 13:40:17;;;;;;;3.95;3.55;;;;;;;;;;5048354;28;20487;-73
2023/04/23 13:42:43;;;;;;;4.38;3.60;;;;;;;;;;5049318;28;20104;-73
2023/04/23 13:45:10;;;;;;;4.57;3.80;;;;;;;;;;5038967;28;20110;-73
2023/04/23 13:47:36;;;;;;;7.30;4.97;;;;;;;;;;5042765;28;20021;-73
2023/04/23 13:50:05;;;;;;;5.63;5.05;;;;;;;;;;5048897;28;20029;-73
2023/04/23 13:52:31;;;;;;;6.70;5.13;;;;;;;;;;5039778;28;20037;-74
2023/04/23 13:54:59;;;;;;;6.55;5.30;;;;;;;;;;5047686;28;20028;-73
2023/04/23 13:57:25;;;;;;;5.35;4.82;;;;;;;;;;5038796;28;20084;-73
2023/04/23 13:59:54;;;;;;;5.38;4.57;;;;;;;;;;5041907;28;20021;-73
2023/04/23 14:02:20;;;;;;;5.00;4.40;;;;;;;;;;5050575;28;20067;-74
2023/04/23 14:04:46;;;;;;;5.15;4.65;;;;;;;;;;5049059;28;20021;-74
2023/04/23 14:07:12;;;;;;;7.85;5.97;;;;;;;;;;5048821;28;20028;-74
2023/04/23 14:09:38;;;;;;;5.78;4.38;;;;;;;;;;5051080;28;20039;-74
2023/04/23 14:12:04;;;;;;;6.00;5.40;;;;;;;;;;5038208;28;20151;-73
2023/04/23 14:14:31;;;;;;;6.28;5.60;;;;;;;;;;5047708;28;20463;-75
2023/04/23 14:16:57;;;;;;;7.05;6.35;;;;;;;;;;5045319;28;21492;-74
2023/04/23 14:19:23;;;;;;;5.97;5.13;;;;;;;;;;5036086;28;20138;-74
2023/04/23 14:21:49;;;;;;;6.28;5.55;;;;;;;;;;5033237;28;20033;-73
2023/04/23 14:24:23;;;;;;;5.13;4.63;;;;;;;;;;5046936;28;20013;-73
2023/04/23 14:26:49;;;;;;;5.88;4.68;;;;;;;;;;5042439;28;20017;-73
2023/04/23 14:29:51;;;;;;;5.65;5.05;;;;;;;;;;5039432;28;20051;-73
2023/04/23 14:32:17;;;;;;;6.65;4.70;;;;;;;;;;5001044;28;20034;-73
2023/04/23 14:34:44;;;;;;;5.05;4.32;;;;;;;;;;5037714;28;20051;-74